^^
Station Historical Data
Daily Summary for April 19, 2017 Units:  English    Metric   Both
« Previous Day
Next Day »
Daily Weekly Monthly Yearly Custom
  High: Low: Average:
Temperature: 57.8 °F 45.0 °F 51.4 °F
Dew Point: 47.3 °F 36.1 °F 41.3 °F
Humidity: 83 % 47 % 69 %
Wind Speed: 9.3 mph 0.0 mph 2.6 mph
Wind Gust: 16.1 mph - -
Wind:- - SSE
Pressure: 30.50 in 30.21 in -
Precipitation: 0.00 in    
Historical Graphs
 
 
Tabular Data for April 19, 2017
Time Temperature Dew Point Pressure Wind Wind Speed Wind Gust Humidity Rainfall Rate (Hourly) solar Conditions
00:00 51.4 °F 36.7 °F 30.45 in Calm     57 % 0.00 in 0.0 W/m2 BKN
00:05 51.3 °F 36.6 °F 30.46 in South 1.0 mph 5.8 mph 57 % 0.00 in 0.0 W/m2 BKN
00:10 51.1 °F 36.4 °F 30.46 in Calm     57 % 0.00 in 0.0 W/m2 BKN
00:15 50.8 °F 36.5 °F 30.46 in Calm     58 % 0.00 in 0.0 W/m2 BKN
00:20 50.3 °F 36.5 °F 30.46 in Calm     59 % 0.00 in 0.0 W/m2 BKN
00:25 50.5 °F 36.7 °F 30.46 in Calm     59 % 0.00 in 0.0 W/m2 BKN
00:30 50.5 °F 36.3 °F 30.46 in Calm     58 % 0.00 in 0.0 W/m2 BKN
00:35 50.1 °F 36.3 °F 30.47 in Calm     59 % 0.00 in 0.0 W/m2 BKN
00:40 49.9 °F 36.1 °F 30.46 in Calm     59 % 0.00 in 0.0 W/m2 BKN
00:45 49.7 °F 36.4 °F 30.46 in Calm     60 % 0.00 in 0.0 W/m2 BKN
00:50 49.4 °F 36.1 °F 30.47 in Calm     60 % 0.00 in 0.0 W/m2 BKN
00:55 49.3 °F 36.4 °F 30.47 in Calm     61 % 0.00 in 0.0 W/m2 BKN
01:00 49.1 °F 36.2 °F 30.47 in Calm     61 % 0.00 in 0.0 W/m2 BKN
01:05 48.6 °F 36.6 °F 30.47 in Calm     63 % 0.00 in 0.0 W/m2 BKN
01:10 48.5 °F 36.9 °F 30.48 in Calm     64 % 0.00 in 0.0 W/m2 BKN
01:15 48.3 °F 37.1 °F 30.48 in Calm     65 % 0.00 in 0.0 W/m2 BKN
01:20 48.2 °F 37.0 °F 30.48 in Calm     65 % 0.00 in 0.0 W/m2 BKN
01:25 48.0 °F 37.2 °F 30.48 in Calm     66 % 0.00 in 0.0 W/m2 BKN
01:30 48.0 °F 37.6 °F 30.48 in Calm     67 % 0.00 in 0.0 W/m2 BKN
01:35 47.8 °F 37.4 °F 30.48 in Calm     67 % 0.00 in 0.0 W/m2 BKN
01:40 47.6 °F 37.2 °F 30.47 in Calm   1.2 mph 67 % 0.00 in 0.0 W/m2 BKN
01:45 47.4 °F 37.4 °F 30.47 in Calm     68 % 0.00 in 0.0 W/m2 BKN
01:50 47.3 °F 37.6 °F 30.47 in Calm     69 % 0.00 in 0.0 W/m2 BKN
01:55 47.1 °F 37.8 °F 30.47 in Calm     70 % 0.00 in 0.0 W/m2 BKN
02:00 47.0 °F 38.1 °F 30.47 in SE 0.1 mph   71 % 0.00 in 0.0 W/m2 BKN
02:05 46.8 °F 37.9 °F 30.47 in Calm     71 % 0.00 in 0.0 W/m2 BKN
02:10 46.7 °F 38.1 °F 30.47 in ESE 1.3 mph 3.5 mph 72 % 0.00 in 0.0 W/m2 BKN
02:15 46.6 °F 38.4 °F 30.47 in ESE 0.8 mph 3.5 mph 73 % 0.00 in 0.0 W/m2 BKN
02:20 46.4 °F 38.6 °F 30.47 in ESE 0.6 mph 2.3 mph 74 % 0.00 in 0.0 W/m2 BKN
02:25 46.3 °F 38.8 °F 30.46 in ESE 1.3 mph 4.6 mph 75 % 0.00 in 0.0 W/m2 BKN
02:30 46.1 °F 39.0 °F 30.45 in ESE 1.6 mph 8.1 mph 76 % 0.00 in 0.0 W/m2 BKN
02:35 46.0 °F 39.2 °F 30.45 in ESE 1.1 mph 3.5 mph 77 % 0.00 in 0.0 W/m2 BKN
02:40 45.9 °F 39.4 °F 30.46 in SE 0.5 mph 2.3 mph 78 % 0.00 in 0.0 W/m2 BKN
02:45 45.8 °F 39.3 °F 30.46 in East 0.9 mph 3.5 mph 78 % 0.00 in 0.0 W/m2 BKN
02:50 45.8 °F 39.3 °F 30.46 in Calm   2.3 mph 78 % 0.00 in 0.0 W/m2 BKN
02:55 45.7 °F 39.6 °F 30.47 in ESE 0.9 mph 5.0 mph 79 % 0.00 in 0.0 W/m2 BKN
03:00 45.7 °F 39.6 °F 30.47 in SE 0.9 mph 2.0 mph 79 % 0.00 in 0.0 W/m2 BKN
03:05 45.7 °F 39.6 °F 30.47 in ESE 0.3 mph 3.5 mph 79 % 0.00 in 0.0 W/m2 BKN
03:10 45.6 °F 39.8 °F 30.47 in ESE 0.1 mph 2.3 mph 80 % 0.00 in 0.0 W/m2 BKN
03:15 45.6 °F 39.8 °F 30.47 in ESE 1.0 mph 3.5 mph 80 % 0.00 in 0.0 W/m2 BKN
03:20 45.5 °F 39.7 °F 30.47 in ESE 0.4 mph 3.0 mph 80 % 0.00 in 0.0 W/m2 BKN
03:22 45.5 °F 39.7 °F 30.47 in Calm     80 % 0.00 in 0.0 W/m2 BKN
03:27 45.4 °F 39.9 °F 30.47 in ESE 0.5 mph 2.3 mph 81 % 0.00 in 0.0 W/m2 BKN
03:32 45.4 °F 39.9 °F 30.47 in ESE 0.1 mph 1.2 mph 81 % 0.00 in 0.0 W/m2 BKN
03:37 45.3 °F 39.8 °F 30.47 in Calm     81 % 0.00 in 0.0 W/m2 BKN
03:42 45.2 °F 39.7 °F 30.47 in Calm     81 % 0.00 in 0.0 W/m2 BKN
03:47 45.1 °F 39.9 °F 30.48 in Calm     82 % 0.00 in 0.0 W/m2 BKN
03:52 45.1 °F 39.9 °F 30.47 in Calm   1.2 mph 82 % 0.00 in 0.0 W/m2 BKN
03:57 45.0 °F 39.8 °F 30.47 in Calm   1.2 mph 82 % 0.00 in 0.0 W/m2 BKN
04:02 45.1 °F 39.9 °F 30.47 in Calm     82 % 0.00 in 0.0 W/m2 BKN
04:07 45.2 °F 40.0 °F 30.48 in ESE 1.6 mph 3.5 mph 82 % 0.00 in 0.0 W/m2 BKN
04:12 45.3 °F 40.1 °F 30.48 in Calm     82 % 0.00 in 0.0 W/m2 BKN
04:17 45.4 °F 40.2 °F 30.48 in East 0.7 mph 3.5 mph 82 % 0.00 in 0.0 W/m2 BKN
04:22 45.4 °F 40.5 °F 30.48 in ESE 1.1 mph 3.5 mph 83 % 0.00 in 0.0 W/m2 BKN
04:27 45.4 °F 40.5 °F 30.48 in ESE 0.5 mph 2.3 mph 83 % 0.00 in 0.0 W/m2 BKN
04:32 45.5 °F 40.6 °F 30.48 in Calm   2.3 mph 83 % 0.00 in 0.0 W/m2 BKN
04:37 45.5 °F 40.6 °F 30.48 in ESE 0.1 mph 3.5 mph 83 % 0.00 in 0.0 W/m2 BKN
04:42 45.5 °F 40.6 °F 30.48 in Calm     83 % 0.00 in 0.0 W/m2 BKN
04:47 45.6 °F 40.7 °F 30.48 in Calm     83 % 0.00 in 0.0 W/m2 BKN
04:52 45.6 °F 40.7 °F 30.49 in ESE 0.3 mph   83 % 0.00 in 0.0 W/m2 BKN
04:57 45.6 °F 40.7 °F 30.48 in SSE 0.2 mph 1.2 mph 83 % 0.00 in 0.0 W/m2 BKN
05:02 45.6 °F 40.7 °F 30.48 in Calm     83 % 0.00 in 0.0 W/m2 BKN
05:07 45.5 °F 40.6 °F 30.49 in SE 1.9 mph 3.5 mph 83 % 0.00 in 0.0 W/m2 BKN
05:12 45.5 °F 40.6 °F 30.49 in SE 0.8 mph 3.5 mph 83 % 0.00 in 0.0 W/m2 BKN
05:17 45.6 °F 40.7 °F 30.49 in South 1.1 mph 2.3 mph 83 % 0.00 in 0.0 W/m2 BKN
05:22 45.6 °F 40.4 °F 30.49 in SSE 0.2 mph 1.2 mph 82 % 0.00 in 0.0 W/m2 BKN
05:27 45.6 °F 40.4 °F 30.49 in South 0.1 mph 3.5 mph 82 % 0.00 in 0.0 W/m2 BKN
05:32 45.6 °F 40.4 °F 30.48 in South 0.7 mph 2.0 mph 82 % 0.00 in 0.0 W/m2 BKN
05:37 45.7 °F 40.5 °F 30.48 in South 0.3 mph 8.1 mph 82 % 0.00 in 0.0 W/m2 BKN
05:42 45.7 °F 40.5 °F 30.48 in SE 0.2 mph 3.5 mph 82 % 0.00 in 0.0 W/m2 BKN
05:47 45.6 °F 40.4 °F 30.48 in South 2.1 mph 3.5 mph 82 % 0.00 in 0.0 W/m2 BKN
05:52 45.6 °F 40.1 °F 30.48 in SE 1.7 mph 9.2 mph 81 % 0.00 in 0.0 W/m2 BKN
05:55 45.7 °F 40.2 °F 30.48 in SE 1.4 mph 4.0 mph 81 % 0.00 in 0.0 W/m2 BKN
06:00 45.7 °F 40.2 °F 30.48 in ESE 0.5 mph 3.5 mph 81 % 0.00 in 0.0 W/m2 BKN
06:05 45.6 °F 40.1 °F 30.47 in ESE 3.7 mph 6.9 mph 81 % 0.00 in 0.0 W/m2 BKN
06:10 45.5 °F 40.0 °F 30.48 in SSE 0.3 mph 2.3 mph 81 % 0.00 in 0.0 W/m2 BKN
06:15 45.6 °F 40.1 °F 30.49 in SE 0.1 mph 3.5 mph 81 % 0.00 in 0.0 W/m2 BKN
06:20 45.6 °F 40.1 °F 30.49 in SE 1.7 mph 3.5 mph 81 % 0.00 in 0.0 W/m2 BKN
06:25 45.5 °F 40.0 °F 30.50 in ESE 2.2 mph 3.5 mph 81 % 0.00 in 0.0 W/m2 BKN
06:30 45.7 °F 40.2 °F 30.50 in SSE 0.3 mph 2.3 mph 81 % 0.00 in 0.0 W/m2 BKN
06:35 45.8 °F 40.0 °F 30.50 in SE 0.4 mph 4.6 mph 80 % 0.00 in 7.0 W/m2 BKN
06:40 45.7 °F 39.9 °F 30.49 in SE 1.4 mph 3.5 mph 80 % 0.00 in 12.0 W/m2 BKN
06:45 45.7 °F 39.9 °F 30.49 in SE 1.4 mph 3.5 mph 80 % 0.00 in 14.0 W/m2 BKN
06:50 45.6 °F 39.5 °F 30.49 in South 3.7 mph 9.2 mph 79 % 0.00 in 14.0 W/m2 BKN
06:55 45.6 °F 39.5 °F 30.49 in SSE 5.3 mph 11.5 mph 79 % 0.00 in 16.0 W/m2 BKN
07:00 45.7 °F 39.6 °F 30.49 in ESE 3.0 mph 7.0 mph 79 % 0.00 in 28.0 W/m2 BKN
07:05 45.7 °F 39.6 °F 30.49 in SSE 2.3 mph 6.0 mph 79 % 0.00 in 37.0 W/m2 SCT
07:10 45.7 °F 39.6 °F 30.49 in SE 0.1 mph 2.3 mph 79 % 0.00 in 39.0 W/m2 BKN
07:15 45.8 °F 39.7 °F 30.49 in Calm   1.2 mph 79 % 0.00 in 40.0 W/m2 BKN
07:20 46.0 °F 39.9 °F 30.49 in ESE 0.3 mph 2.3 mph 79 % 0.00 in 44.0 W/m2 BKN
07:25 45.9 °F 39.8 °F 30.49 in SE 3.5 mph 8.1 mph 79 % 0.00 in 56.0 W/m2 BKN
07:30 46.0 °F 39.9 °F 30.49 in SE 4.1 mph 5.0 mph 79 % 0.00 in 72.0 W/m2 SCT
07:35 46.0 °F 39.9 °F 30.49 in SSE 0.9 mph 6.9 mph 79 % 0.00 in 95.0 W/m2 SCT
07:40 46.3 °F 40.1 °F 30.49 in SSE 0.9 mph 3.5 mph 79 % 0.00 in 102.0 W/m2 FEW
07:45 46.3 °F 39.8 °F 30.49 in ESE 5.5 mph 6.9 mph 78 % 0.00 in 120.0 W/m2 FEW
07:50 46.2 °F 39.7 °F 30.49 in South 4.4 mph 9.0 mph 78 % 0.00 in 121.0 W/m2 SCT
07:55 46.3 °F 39.8 °F 30.49 in SE 1.2 mph 5.8 mph 78 % 0.00 in 156.0 W/m2 FEW
08:00 46.4 °F 39.9 °F 30.49 in SE 0.2 mph 3.5 mph 78 % 0.00 in 172.0 W/m2 FEW
08:05 46.8 °F 40.3 °F 30.49 in Calm   3.5 mph 78 % 0.00 in 221.0 W/m2 CLR
08:10 46.6 °F 39.4 °F 30.48 in SSE 4.0 mph 6.9 mph 76 % 0.00 in 236.0 W/m2 CLR
08:15 47.3 °F 40.5 °F 30.48 in ESE 0.6 mph 4.0 mph 77 % 0.00 in 193.0 W/m2 CLR
08:21 47.1 °F 39.9 °F 30.48 in SE 4.2 mph 9.2 mph 76 % 0.00 in 232.0 W/m2 FEW
08:26 47.1 °F 39.6 °F 30.48 in South 3.4 mph 4.6 mph 75 % 0.00 in 220.0 W/m2 FEW
08:31 47.1 °F 39.9 °F 30.48 in South 4.1 mph 8.1 mph 76 % 0.00 in 192.0 W/m2 SCT
08:36 47.1 °F 39.9 °F 30.47 in SE 2.9 mph 3.5 mph 76 % 0.00 in 149.0 W/m2 SCT
08:41 47.3 °F 40.1 °F 30.48 in SE 1.0 mph 5.0 mph 76 % 0.00 in 171.0 W/m2 SCT
08:46 47.4 °F 40.2 °F 30.48 in ESE 2.1 mph 4.0 mph 76 % 0.00 in 197.0 W/m2 SCT
08:51 47.4 °F 40.2 °F 30.48 in South 3.7 mph 4.6 mph 76 % 0.00 in 155.0 W/m2 BKN
08:56 47.4 °F 40.2 °F 30.48 in South 4.8 mph 12.7 mph 76 % 0.00 in 202.0 W/m2 SCT
09:01 47.6 °F 40.1 °F 30.48 in SSE 4.4 mph 9.2 mph 75 % 0.00 in 109.0 W/m2 BKN
09:06 47.5 °F 40.0 °F 30.48 in SSE 3.0 mph 5.8 mph 75 % 0.00 in 183.0 W/m2 BKN
09:11 47.6 °F 40.1 °F 30.48 in SSE 1.2 mph 4.6 mph 75 % 0.00 in 160.0 W/m2 BKN
09:16 47.7 °F 40.2 °F 30.47 in SSE 0.2 mph 2.3 mph 75 % 0.00 in 188.0 W/m2 BKN
09:21 48.1 °F 40.5 °F 30.48 in South 1.5 mph 3.5 mph 75 % 0.00 in 214.0 W/m2 BKN
09:26 48.3 °F 40.7 °F 30.48 in South 3.7 mph 9.2 mph 75 % 0.00 in 200.0 W/m2 BKN
09:31 48.1 °F 40.5 °F 30.48 in South 2.8 mph 4.6 mph 75 % 0.00 in 251.0 W/m2 BKN
09:36 48.4 °F 40.8 °F 30.48 in SSW 2.2 mph 4.6 mph 75 % 0.00 in 209.0 W/m2 BKN
09:41 48.9 °F 41.0 °F 30.47 in South 1.9 mph 6.9 mph 74 % 0.00 in 257.0 W/m2 SCT
09:46 48.7 °F 40.8 °F 30.47 in SSW 6.1 mph 8.1 mph 74 % 0.00 in 294.0 W/m2 SCT
09:51 49.0 °F 41.1 °F 30.47 in South 4.1 mph 6.9 mph 74 % 0.00 in 367.0 W/m2 FEW
09:56 49.3 °F 41.0 °F 30.47 in South 2.1 mph 5.8 mph 73 % 0.00 in 269.0 W/m2 SCT
10:01 49.5 °F 41.2 °F 30.46 in South 1.3 mph 5.0 mph 73 % 0.00 in 294.0 W/m2 SCT
10:06 49.9 °F 41.6 °F 30.46 in SE 2.0 mph 4.6 mph 73 % 0.00 in 824.0 W/m2 BKN
10:11 49.8 °F 41.1 °F 30.45 in South 3.6 mph 7.0 mph 72 % 0.00 in 250.0 W/m2 BKN
10:16 50.0 °F 41.3 °F 30.45 in South 2.0 mph 5.8 mph 72 % 0.00 in 369.0 W/m2 BKN
10:21 50.6 °F 41.9 °F 30.45 in South 6.0 mph 9.2 mph 72 % 0.00 in 1004.0 W/m2 CLR
10:23 51.0 °F 42.3 °F 30.45 in SE 3.8 mph 8.1 mph 72 % 0.00 in 1044.0 W/m2 CLR
10:28 50.8 °F 41.7 °F 30.45 in South 0.9 mph 3.5 mph 71 % 0.00 in 443.0 W/m2 FEW
10:33 51.2 °F 41.7 °F 30.45 in SSE 1.0 mph 3.5 mph 70 % 0.00 in 329.0 W/m2 SCT
10:38 50.9 °F 41.8 °F 30.45 in South 1.9 mph 5.0 mph 71 % 0.00 in 327.0 W/m2 BKN
10:39 51.0 °F 41.6 °F 30.44 in South 4.5 mph 4.6 mph 70 % 0.00 in 334.0 W/m2 BKN
10:44 51.0 °F 41.6 °F 30.44 in SSW 1.8 mph 3.5 mph 70 % 0.00 in 355.0 W/m2 SCT
10:49 52.1 °F 42.2 °F 30.44 in SSE 3.9 mph 8.1 mph 69 % 0.00 in 874.0 W/m2 CLR
10:54 52.7 °F 42.0 °F 30.44 in South 6.6 mph 8.1 mph 67 % 0.00 in 928.0 W/m2 CLR
10:59 52.8 °F 42.1 °F 30.44 in South 0.9 mph 2.3 mph 67 % 0.00 in 921.0 W/m2 CLR
11:04 53.1 °F 41.6 °F 30.44 in SSE 4.2 mph 9.2 mph 65 % 0.00 in 638.0 W/m2 CLR
11:09 52.9 °F 41.4 °F 30.43 in SSE 4.5 mph 8.1 mph 65 % 0.00 in 557.0 W/m2 CLR
11:14 53.1 °F 41.6 °F 30.42 in SSE 8.0 mph 13.8 mph 65 % 0.00 in 417.0 W/m2 SCT
11:19 53.0 °F 41.5 °F 30.42 in ESE 4.5 mph 8.1 mph 65 % 0.00 in 396.0 W/m2 SCT
11:24 53.3 °F 41.8 °F 30.42 in SSE 3.5 mph 5.8 mph 65 % 0.00 in 610.0 W/m2 CLR
11:29 54.1 °F 41.8 °F 30.42 in SSE 5.4 mph 8.1 mph 63 % 0.00 in 691.0 W/m2 CLR
11:34 53.5 °F 41.6 °F 30.42 in South 4.6 mph 10.4 mph 64 % 0.00 in 599.0 W/m2 FEW
11:39 53.7 °F 41.8 °F 30.42 in SSE 3.3 mph 5.8 mph 64 % 0.00 in 708.0 W/m2 CLR
11:44 54.4 °F 42.1 °F 30.42 in SE 5.0 mph 8.1 mph 63 % 0.00 in 552.0 W/m2 FEW
11:49 53.9 °F 41.6 °F 30.42 in ESE 1.2 mph 3.5 mph 63 % 0.00 in 561.0 W/m2 FEW
11:54 53.8 °F 41.9 °F 30.41 in SE 5.0 mph 9.2 mph 64 % 0.00 in 596.0 W/m2 FEW
11:59 54.5 °F 42.2 °F 30.41 in ESE 3.1 mph 8.1 mph 63 % 0.00 in 554.0 W/m2 FEW
12:04 54.7 °F 41.5 °F 30.41 in SSE 6.3 mph 10.4 mph 61 % 0.00 in 506.0 W/m2 FEW
12:09 54.6 °F 41.0 °F 30.40 in SE 2.2 mph 5.8 mph 60 % 0.00 in 462.0 W/m2 SCT
12:14 54.8 °F 42.0 °F 30.40 in SE 2.4 mph 6.9 mph 62 % 0.00 in 490.0 W/m2 SCT
12:19 55.5 °F 41.8 °F 30.40 in SE 4.7 mph 6.9 mph 60 % 0.00 in 420.0 W/m2 SCT
12:24 55.0 °F 41.8 °F 30.39 in ESE 3.6 mph 6.9 mph 61 % 0.00 in 415.0 W/m2 SCT
12:29 55.5 °F 41.8 °F 30.39 in South 5.4 mph 11.5 mph 60 % 0.00 in 454.0 W/m2 SCT
12:34 55.7 °F 41.1 °F 30.38 in South 4.3 mph 8.1 mph 58 % 0.00 in 461.0 W/m2 SCT
12:39 55.5 °F 42.3 °F 30.39 in SE 4.0 mph 7.0 mph 61 % 0.00 in 446.0 W/m2 SCT
12:44 55.5 °F 41.8 °F 30.39 in SE 3.9 mph 6.9 mph 60 % 0.00 in 387.0 W/m2 BKN
12:49 55.9 °F 41.8 °F 30.38 in South 4.2 mph 10.0 mph 59 % 0.00 in 374.0 W/m2 BKN
12:54 56.1 °F 41.5 °F 30.39 in SSW 4.3 mph 6.9 mph 58 % 0.00 in 292.0 W/m2 BKN
12:59 56.2 °F 41.2 °F 30.38 in South 3.4 mph 5.0 mph 57 % 0.00 in 225.0 W/m2 BKN
13:04 56.3 °F 40.8 °F 30.38 in South 4.5 mph 12.7 mph 56 % 0.00 in 188.0 W/m2 OVC
13:09 56.0 °F 40.5 °F 30.38 in South 5.7 mph 10.4 mph 56 % 0.00 in 183.0 W/m2 OVC
13:14 56.0 °F 40.5 °F 30.38 in SSE 6.9 mph 9.2 mph 56 % 0.00 in 200.0 W/m2 OVC
13:19 56.3 °F 40.8 °F 30.37 in South 7.4 mph 11.5 mph 56 % 0.00 in 244.0 W/m2 BKN
13:24 56.1 °F 41.1 °F 30.37 in South 5.0 mph 10.0 mph 57 % 0.00 in 248.0 W/m2 BKN
13:29 56.6 °F 41.1 °F 30.36 in South 6.2 mph 9.0 mph 56 % 0.00 in 313.0 W/m2 BKN
13:34 56.8 °F 41.3 °F 30.35 in South 6.4 mph 8.1 mph 56 % 0.00 in 309.0 W/m2 BKN
13:39 56.8 °F 40.8 °F 30.35 in SSW 8.4 mph 11.5 mph 55 % 0.00 in 281.0 W/m2 BKN
13:44 56.8 °F 40.3 °F 30.34 in South 4.9 mph 10.4 mph 54 % 0.00 in 332.0 W/m2 BKN
13:49 56.9 °F 40.9 °F 30.34 in South 5.2 mph 10.4 mph 55 % 0.00 in 346.0 W/m2 BKN
13:54 57.2 °F 41.2 °F 30.34 in SSE 5.8 mph 11.5 mph 55 % 0.00 in 323.0 W/m2 BKN
13:59 57.4 °F 41.4 °F 30.35 in South 6.7 mph 9.2 mph 55 % 0.00 in 250.0 W/m2 BKN
14:04 57.1 °F 40.1 °F 30.35 in South 4.7 mph 10.4 mph 53 % 0.00 in 188.0 W/m2 OVC
14:09 56.9 °F 39.4 °F 30.34 in SSE 6.7 mph 16.1 mph 52 % 0.00 in 165.0 W/m2 OVC
14:14 56.9 °F 39.4 °F 30.34 in South 9.3 mph 11.5 mph 52 % 0.00 in 160.0 W/m2 OVC
14:20 57.0 °F 39.0 °F 30.34 in South 7.5 mph 11.5 mph 51 % 0.00 in 181.0 W/m2 OVC
14:25 57.2 °F 39.2 °F 30.34 in South 6.9 mph 11.5 mph 51 % 0.00 in 162.0 W/m2 OVC
14:29 57.4 °F 39.4 °F 30.34 in South 7.0 mph 10.0 mph 51 % 0.00 in 146.0 W/m2 OVC
14:39 57.3 °F 39.3 °F 30.33 in South 3.0 mph 16.0 mph 51 % 0.00 in 169.0 W/m2 OVC
14:49 57.4 °F 39.4 °F 30.33 in South 3.0 mph 12.0 mph 51 % 0.00 in 156.0 W/m2 OVC
14:59 57.7 °F 39.2 °F 30.32 in SSW 3.0 mph 9.0 mph 50 % 0.00 in 106.0 W/m2 OVC
15:09 57.7 °F 38.7 °F 30.32 in South 3.0 mph 8.0 mph 49 % 0.00 in 155.0 W/m2 OVC
15:19 57.8 °F 38.8 °F 30.32 in SSW 3.0 mph 7.0 mph 49 % 0.00 in 100.0 W/m2 OVC
15:24 57.7 °F 38.7 °F 30.31 in SSW 5.2 mph 10.0 mph 49 % 0.00 in 90.0 W/m2 OVC
15:29 57.6 °F 38.0 °F 30.31 in South 5.8 mph 9.2 mph 48 % 0.00 in 74.0 W/m2 OVC
15:34 57.5 °F 37.4 °F 30.30 in South 6.1 mph 9.2 mph 47 % 0.00 in 70.0 W/m2 OVC
15:39 57.4 °F 37.9 °F 30.30 in South 4.2 mph 8.1 mph 48 % 0.00 in 56.0 W/m2 OVC
15:44 57.5 °F 37.9 °F 30.30 in SE 5.0 mph 9.2 mph 48 % 0.00 in 67.0 W/m2 OVC
15:50 57.5 °F 37.9 °F 30.29 in South 4.0 mph 8.1 mph 48 % 0.00 in 76.0 W/m2 OVC
15:55 57.4 °F 37.9 °F 30.29 in South 5.0 mph 10.4 mph 48 % 0.00 in 60.0 W/m2 OVC
16:00 57.3 °F 38.3 °F 30.30 in South 6.3 mph 9.2 mph 49 % 0.00 in 56.0 W/m2 OVC
16:05 57.2 °F 38.7 °F 30.29 in South 7.5 mph 11.5 mph 50 % 0.00 in 56.0 W/m2 OVC
16:10 57.2 °F 38.7 °F 30.29 in South 6.1 mph 9.2 mph 50 % 0.00 in 67.0 W/m2 OVC
16:15 57.3 °F 39.3 °F 30.29 in SSW 6.5 mph 11.5 mph 51 % 0.00 in 77.0 W/m2 OVC
16:20 57.2 °F 39.2 °F 30.29 in SSE 3.2 mph 8.1 mph 51 % 0.00 in 88.0 W/m2 OVC
16:25 57.0 °F 39.0 °F 30.29 in South 5.1 mph 11.5 mph 51 % 0.00 in 105.0 W/m2 OVC
16:30 57.0 °F 40.0 °F 30.29 in SSE 5.4 mph 10.4 mph 53 % 0.00 in 105.0 W/m2 OVC
16:35 56.9 °F 40.4 °F 30.29 in SSW 3.4 mph 9.2 mph 54 % 0.00 in 93.0 W/m2 OVC
16:40 56.9 °F 40.4 °F 30.29 in South 7.1 mph 11.5 mph 54 % 0.00 in 118.0 W/m2 OVC
16:45 56.7 °F 40.7 °F 30.29 in South 4.7 mph 8.1 mph 55 % 0.00 in 120.0 W/m2 OVC
16:50 56.6 °F 41.5 °F 30.29 in SSW 3.7 mph 6.9 mph 57 % 0.00 in 91.0 W/m2 OVC
16:55 56.6 °F 41.5 °F 30.29 in South 5.0 mph 5.8 mph 57 % 0.00 in 86.0 W/m2 OVC
17:00 56.3 °F 42.1 °F 30.28 in South 8.2 mph 11.5 mph 59 % 0.00 in 77.0 W/m2 OVC
17:05 56.3 °F 42.6 °F 30.28 in South 5.6 mph 9.2 mph 60 % 0.00 in 62.0 W/m2 OVC
17:10 56.2 °F 42.9 °F 30.28 in South 4.2 mph 11.5 mph 61 % 0.00 in 70.0 W/m2 OVC
17:15 56.2 °F 43.3 °F 30.28 in South 8.6 mph 11.0 mph 62 % 0.00 in 70.0 W/m2 OVC
17:20 56.2 °F 43.3 °F 30.28 in South 3.6 mph 9.2 mph 62 % 0.00 in 74.0 W/m2 OVC
17:25 56.2 °F 43.3 °F 30.28 in South 3.4 mph 9.0 mph 62 % 0.00 in 76.0 W/m2 OVC
17:30 56.1 °F 43.3 °F 30.28 in SSW 8.5 mph 11.5 mph 62 % 0.00 in 70.0 W/m2 OVC
17:35 56.0 °F 43.2 °F 30.28 in South 3.5 mph 5.8 mph 62 % 0.00 in 93.0 W/m2 OVC
17:40 56.1 °F 43.7 °F 30.27 in SSE 7.9 mph 11.5 mph 63 % 0.00 in 111.0 W/m2 BKN
17:45 56.0 °F 43.6 °F 30.28 in South 5.1 mph 8.1 mph 63 % 0.00 in 54.0 W/m2 OVC
17:50 55.9 °F 43.5 °F 30.29 in South 5.2 mph 9.2 mph 63 % 0.00 in 53.0 W/m2 OVC
17:55 55.8 °F 43.8 °F 30.29 in South 6.1 mph 11.0 mph 64 % 0.00 in 35.0 W/m2 OVC
18:00 55.7 °F 44.1 °F 30.29 in SSW 5.1 mph 6.9 mph 65 % 0.00 in 37.0 W/m2 OVC
18:05 55.8 °F 44.2 °F 30.28 in South 5.6 mph 6.9 mph 65 % 0.00 in 37.0 W/m2 OVC
18:10 55.7 °F 44.5 °F 30.28 in SSW 7.4 mph 8.1 mph 66 % 0.00 in 39.0 W/m2 OVC
18:15 55.6 °F 44.4 °F 30.28 in South 5.2 mph 9.2 mph 66 % 0.00 in 33.0 W/m2 OVC
18:20 55.5 °F 44.3 °F 30.28 in SSW 7.8 mph 11.5 mph 66 % 0.00 in 30.0 W/m2 OVC
18:25 55.3 °F 44.5 °F 30.27 in South 4.8 mph 11.5 mph 67 % 0.00 in 32.0 W/m2 OVC
18:30 55.4 °F 44.6 °F 30.27 in South 7.5 mph 11.5 mph 67 % 0.00 in 26.0 W/m2 OVC
18:35 55.1 °F 44.3 °F 30.27 in SSW 5.2 mph 9.2 mph 67 % 0.00 in 40.0 W/m2 OVC
18:40 55.1 °F 44.3 °F 30.27 in SSW 5.3 mph 8.1 mph 67 % 0.00 in 32.0 W/m2 OVC
18:45 55.1 °F 44.3 °F 30.28 in South 4.2 mph 4.6 mph 67 % 0.00 in 21.0 W/m2 OVC
18:50 55.0 °F 44.6 °F 30.27 in South 3.8 mph 8.1 mph 68 % 0.00 in 28.0 W/m2 OVC
18:55 54.9 °F 44.5 °F 30.27 in South 5.1 mph 9.2 mph 68 % 0.00 in 25.0 W/m2 OVC
19:00 54.9 °F 44.5 °F 30.26 in SSE 5.5 mph 6.9 mph 68 % 0.00 in 26.0 W/m2 OVC
19:05 55.0 °F 44.6 °F 30.26 in SSW 2.4 mph 4.0 mph 68 % 0.00 in 21.0 W/m2 OVC
19:10 54.9 °F 44.5 °F 30.27 in South 4.4 mph 6.9 mph 68 % 0.00 in 14.0 W/m2 OVC
19:14 54.8 °F 44.4 °F 30.26 in South 3.0 mph 5.0 mph 68 % 0.00 in 9.0 W/m2 OVC
19:19 54.7 °F 44.3 °F 30.26 in South 2.0 mph 8.0 mph 68 % 0.00 in 7.0 W/m2 OVC
19:24 54.7 °F 44.3 °F 30.26 in South 5.0 mph 7.0 mph 68 % 0.00 in 5.0 W/m2 OVC
19:29 54.6 °F 44.6 °F 30.26 in South 5.0 mph 10.0 mph 69 % 0.00 in 0.0 W/m2 OVC
19:34 54.6 °F 44.6 °F 30.26 in South 2.0 mph 10.0 mph 69 % 0.00 in 0.0 W/m2 OVC
19:39 54.6 °F 44.6 °F 30.25 in South 3.0 mph 7.0 mph 69 % 0.00 in 0.0 W/m2 OVC
19:44 54.6 °F 44.6 °F 30.25 in South 2.0 mph 4.0 mph 69 % 0.00 in 0.0 W/m2 OVC
19:49 54.5 °F 44.5 °F 30.25 in South 1.0 mph 4.0 mph 69 % 0.00 in 0.0 W/m2 OVC
19:54 54.5 °F 44.5 °F 30.24 in Calm   6.0 mph 69 % 0.00 in 0.0 W/m2 OVC
19:59 54.4 °F 44.4 °F 30.25 in South 2.0 mph 8.0 mph 69 % 0.00 in 0.0 W/m2 OVC
20:04 54.4 °F 44.4 °F 30.25 in South 2.0 mph 8.0 mph 69 % 0.00 in 0.0 W/m2 OVC
20:09 54.2 °F 44.2 °F 30.26 in South 3.0 mph 7.0 mph 69 % 0.00 in 0.0 W/m2 OVC
20:14 54.2 °F 44.2 °F 30.25 in South 5.0 mph 10.0 mph 69 % 0.00 in 0.0 W/m2 OVC
20:19 54.2 °F 44.2 °F 30.25 in South 3.0 mph 10.0 mph 69 % 0.00 in 0.0 W/m2 OVC
20:24 54.1 °F 44.2 °F 30.25 in South 3.0 mph 6.0 mph 69 % 0.00 in 0.0 W/m2 OVC
20:29 54.0 °F 44.1 °F 30.26 in South 3.0 mph 6.0 mph 69 % 0.00 in 0.0 W/m2 OVC
20:34 54.0 °F 44.1 °F 30.25 in South 3.0 mph 7.0 mph 69 % 0.00 in 0.0 W/m2 OVC
20:39 54.1 °F 44.2 °F 30.25 in South 3.0 mph 8.0 mph 69 % 0.00 in 0.0 W/m2 OVC
20:44 54.0 °F 44.1 °F 30.25 in South 3.0 mph 7.0 mph 69 % 0.00 in 0.0 W/m2 OVC
20:49 54.0 °F 44.1 °F 30.25 in Calm   6.0 mph 69 % 0.00 in 0.0 W/m2 OVC
20:54 53.9 °F 44.0 °F 30.25 in Calm   2.0 mph 69 % 0.00 in 0.0 W/m2 OVC
20:59 53.9 °F 44.0 °F 30.25 in Calm     69 % 0.00 in 0.0 W/m2 OVC
21:04 53.8 °F 43.9 °F 30.26 in Calm     69 % 0.00 in 0.0 W/m2 OVC
21:09 53.8 °F 43.9 °F 30.25 in Calm   3.0 mph 69 % 0.00 in 0.0 W/m2 OVC
21:14 53.7 °F 44.1 °F 30.25 in Calm     70 % 0.00 in 0.0 W/m2 OVC
21:19 53.8 °F 44.2 °F 30.25 in Calm     70 % 0.00 in 0.0 W/m2 OVC
21:24 53.7 °F 44.1 °F 30.25 in Calm     70 % 0.00 in 0.0 W/m2 OVC
21:29 53.7 °F 44.1 °F 30.25 in South 3.0 mph 7.0 mph 70 % 0.00 in 0.0 W/m2 OVC
21:34 53.7 °F 44.1 °F 30.25 in South 1.0 mph 5.0 mph 70 % 0.00 in 0.0 W/m2 OVC
21:39 53.8 °F 44.6 °F 30.25 in South 3.0 mph 6.0 mph 71 % 0.00 in 0.0 W/m2 OVC
21:44 53.8 °F 44.6 °F 30.25 in South 3.0 mph 7.0 mph 71 % 0.00 in 0.0 W/m2 OVC
21:49 53.6 °F 44.4 °F 30.24 in South 2.0 mph 6.0 mph 71 % 0.00 in 0.0 W/m2 OVC
21:54 53.6 °F 44.4 °F 30.24 in South 5.0 mph 7.0 mph 71 % 0.00 in 0.0 W/m2 OVC
21:59 53.6 °F 44.4 °F 30.24 in South 2.0 mph 6.0 mph 71 % 0.00 in 0.0 W/m2 OVC
22:04 53.5 °F 44.7 °F 30.23 in South 2.0 mph 8.0 mph 72 % 0.00 in 0.0 W/m2 OVC
22:09 53.4 °F 44.6 °F 30.24 in Calm   7.0 mph 72 % 0.00 in 0.0 W/m2 OVC
22:14 53.5 °F 44.7 °F 30.24 in Calm   4.0 mph 72 % 0.00 in 0.0 W/m2 OVC
22:19 53.4 °F 44.6 °F 30.23 in SSW 3.0 mph 6.0 mph 72 % 0.00 in 0.0 W/m2 OVC
22:24 53.4 °F 45.0 °F 30.23 in South 2.0 mph 7.0 mph 73 % 0.00 in 0.0 W/m2 OVC
22:29 53.4 °F 45.0 °F 30.23 in South 3.0 mph 6.0 mph 73 % 0.00 in 0.0 W/m2 OVC
22:34 53.4 °F 45.0 °F 30.23 in Calm   8.0 mph 73 % 0.00 in 0.0 W/m2 OVC
22:39 53.5 °F 45.4 °F 30.23 in Calm   4.0 mph 74 % 0.00 in 0.0 W/m2 OVC
22:44 53.3 °F 45.2 °F 30.23 in Calm   3.0 mph 74 % 0.00 in 0.0 W/m2 OVC
22:49 53.3 °F 45.6 °F 30.23 in SSW 1.0 mph 3.0 mph 75 % 0.00 in 0.0 W/m2 OVC
22:54 53.3 °F 45.6 °F 30.23 in SSW 2.0 mph 5.0 mph 75 % 0.00 in 0.0 W/m2 OVC
22:59 53.3 °F 45.9 °F 30.23 in Calm   4.0 mph 76 % 0.00 in 0.0 W/m2 OVC
23:04 53.4 °F 46.0 °F 30.22 in Calm   4.0 mph 76 % 0.00 in 0.0 W/m2 OVC
23:09 53.4 °F 46.4 °F 30.22 in Calm     77 % 0.00 in 0.0 W/m2 OVC
23:14 53.4 °F 46.4 °F 30.22 in Calm   5.0 mph 77 % 0.00 in 0.0 W/m2 OVC
23:19 53.4 °F 46.4 °F 30.22 in SSW 1.0 mph 4.0 mph 77 % 0.00 in 0.0 W/m2 OVC
23:24 53.4 °F 46.4 °F 30.22 in Calm   2.0 mph 77 % 0.00 in 0.0 W/m2 OVC
23:29 53.4 °F 46.7 °F 30.22 in Calm   5.0 mph 78 % 0.00 in 0.0 W/m2 OVC
23:34 53.4 °F 46.7 °F 30.22 in SSW 3.0 mph 6.0 mph 78 % 0.00 in 0.0 W/m2 OVC
23:39 53.5 °F 46.8 °F 30.22 in SSW 1.0 mph 4.0 mph 78 % 0.00 in 0.0 W/m2 OVC
23:44 53.5 °F 47.1 °F 30.22 in Calm     79 % 0.00 in 0.0 W/m2 OVC
23:49 53.6 °F 47.2 °F 30.22 in Calm     79 % 0.00 in 0.0 W/m2 OVC
23:54 53.6 °F 47.2 °F 30.21 in Calm   4.0 mph 79 % 0.00 in 0.0 W/m2 OVC
23:59 53.7 °F 47.3 °F 30.21 in Calm   4.0 mph 79 % 0.00 in 0.0 W/m2 OVC
Air Products Campus Weather
Compliments of Weather Underground - 3.5 mb